Terminal Aerodrome Forecast
Issued by NWS Albany, NY

Home | Current Version | Previous Version | Text Only | Print | Product List | Glossary On
Versions: 1 2 3 4 5 6 7 8 9 10 11 12 13 14 15 16 17 18 19 20
110
FTUS41 KALY 260031 AAA
TAFALB
TAF AMD
KALB 260031Z 2601/2624 02006KT P6SM VCSH FEW004 OVC025
      TEMPO 2601/2603 2SM -RA BR BKN004
     FM260300 05006KT 6SM BR FEW003 SCT015 OVC025
     FM260600 01006KT 2SM -RA BR FEW008 OVC015
     FM261400 33006KT 5SM -SHRA BR SCT008 OVC012=

USA.gov is the U.S. government's official web portal to all federal, state and local government web resources and services.